sensor_id;sensor_type;location;lat;lon;timestamp;temperature;humidity
1602;DHT22;794;48.592;9.634;2022-08-21T00:02:28;12.60;1.00
1602;DHT22;794;48.592;9.634;2022-08-21T00:04:56;12.50;1.00
1602;DHT22;794;48.592;9.634;2022-08-21T00:07:23;12.50;1.00
1602;DHT22;794;48.592;9.634;2022-08-21T00:12:16;12.30;1.00
1602;DHT22;794;48.592;9.634;2022-08-21T00:14:43;12.30;1.00
1602;DHT22;794;48.592;9.634;2022-08-21T00:17:10;12.10;1.00
1602;DHT22;794;48.592;9.634;2022-08-21T00:22:06;12.40;1.00
1602;DHT22;794;48.592;9.634;2022-08-21T00:24:33;12.40;1.00
1602;DHT22;794;48.592;9.634;2022-08-21T00:27:00;12.50;1.00
1602;DHT22;794;48.592;9.634;2022-08-21T00:29:27;12.80;1.00
1602;DHT22;794;48.592;9.634;2022-08-21T00:34:21;12.30;1.00
1602;DHT22;794;48.592;9.634;2022-08-21T00:39:17;12.30;1.00
1602;DHT22;794;48.592;9.634;2022-08-21T00:41:44;12.80;1.00
1602;DHT22;794;48.592;9.634;2022-08-21T00:44:13;12.40;1.00
1602;DHT22;794;48.592;9.634;2022-08-21T00:46:42;12.00;1.00
1602;DHT22;794;48.592;9.634;2022-08-21T00:49:10;12.20;1.00
1602;DHT22;794;48.592;9.634;2022-08-21T00:51:42;12.20;1.00
1602;DHT22;794;48.592;9.634;2022-08-21T00:54:10;12.30;1.00
1602;DHT22;794;48.592;9.634;2022-08-21T00:56:39;12.30;1.00
1602;DHT22;794;48.592;9.634;2022-08-21T00:59:06;12.20;1.00
1602;DHT22;794;48.592;9.634;2022-08-21T01:01:34;12.90;1.00
1602;DHT22;794;48.592;9.634;2022-08-21T01:04:02;12.00;1.00
1602;DHT22;794;48.592;9.634;2022-08-21T01:06:29;12.00;1.00
1602;DHT22;794;48.592;9.634;2022-08-21T01:08:56;11.90;1.00
1602;DHT22;794;48.592;9.634;2022-08-21T01:13:52;12.00;1.00
1602;DHT22;794;48.592;9.634;2022-08-21T01:16:21;12.00;1.00
1602;DHT22;794;48.592;9.634;2022-08-21T01:18:50;12.10;1.00
1602;DHT22;794;48.592;9.634;2022-08-21T01:21:20;13.10;1.00
1602;DHT22;794;48.592;9.634;2022-08-21T01:23:50;12.00;1.00
1602;DHT22;794;48.592;9.634;2022-08-21T01:26:22;12.00;1.00
1602;DHT22;794;48.592;9.634;2022-08-21T01:28:52;12.00;1.00
1602;DHT22;794;48.592;9.634;2022-08-21T01:31:24;12.60;1.00
1602;DHT22;794;48.592;9.634;2022-08-21T01:33:51;12.40;1.00
1602;DHT22;794;48.592;9.634;2022-08-21T01:36:19;12.30;1.00
1602;DHT22;794;48.592;9.634;2022-08-21T01:38:46;12.00;1.00
1602;DHT22;794;48.592;9.634;2022-08-21T01:41:13;11.70;1.00
1602;DHT22;794;48.592;9.634;2022-08-21T01:43:41;11.90;1.00
1602;DHT22;794;48.592;9.634;2022-08-21T01:46:09;11.80;1.00
1602;DHT22;794;48.592;9.634;2022-08-21T01:48:36;11.90;1.00
1602;DHT22;794;48.592;9.634;2022-08-21T01:51:04;9.90;1.00
1602;DHT22;794;48.592;9.634;2022-08-21T01:53:34;11.60;1.00
1602;DHT22;794;48.592;9.634;2022-08-21T01:56:03;11.60;1.00
1602;DHT22;794;48.592;9.634;2022-08-21T01:58:31;11.90;1.00
1602;DHT22;794;48.592;9.634;2022-08-21T02:00:59;14.10;1.00
1602;DHT22;794;48.592;9.634;2022-08-21T02:03:27;13.90;1.00
1602;DHT22;794;48.592;9.634;2022-08-21T02:08:21;11.50;1.00
1602;DHT22;794;48.592;9.634;2022-08-21T02:10:50;11.60;1.00
1602;DHT22;794;48.592;9.634;2022-08-21T02:15:44;11.50;1.00
1602;DHT22;794;48.592;9.634;2022-08-21T02:20:41;11.60;1.00
1602;DHT22;794;48.592;9.634;2022-08-21T02:23:09;11.30;1.00
1602;DHT22;794;48.592;9.634;2022-08-21T02:25:37;11.30;1.00
1602;DHT22;794;48.592;9.634;2022-08-21T02:28:09;11.50;1.00
1602;DHT22;794;48.592;9.634;2022-08-21T02:30:39;11.70;1.00
1602;DHT22;794;48.592;9.634;2022-08-21T02:33:07;11.70;1.00
1602;DHT22;794;48.592;9.634;2022-08-21T02:35:35;11.60;1.00
1602;DHT22;794;48.592;9.634;2022-08-21T02:38:09;11.40;1.00
1602;DHT22;794;48.592;9.634;2022-08-21T02:40:39;11.50;1.00
1602;DHT22;794;48.592;9.634;2022-08-21T02:43:08;11.60;1.00
1602;DHT22;794;48.592;9.634;2022-08-21T02:45:36;11.60;1.00
1602;DHT22;794;48.592;9.634;2022-08-21T02:48:05;11.40;1.00
1602;DHT22;794;48.592;9.634;2022-08-21T02:50:34;11.20;1.00
1602;DHT22;794;48.592;9.634;2022-08-21T02:53:02;11.70;1.00
1602;DHT22;794;48.592;9.634;2022-08-21T02:55:30;11.40;1.00
1602;DHT22;794;48.592;9.634;2022-08-21T02:57:58;11.40;1.00
1602;DHT22;794;48.592;9.634;2022-08-21T03:00:29;11.30;1.00
1602;DHT22;794;48.592;9.634;2022-08-21T03:05:25;11.60;1.00
1602;DHT22;794;48.592;9.634;2022-08-21T03:10:21;11.60;1.00
1602;DHT22;794;48.592;9.634;2022-08-21T03:12:48;11.50;1.00
1602;DHT22;794;48.592;9.634;2022-08-21T03:15:17;11.30;1.00
1602;DHT22;794;48.592;9.634;2022-08-21T03:17:47;11.70;1.00
1602;DHT22;794;48.592;9.634;2022-08-21T03:20:17;11.50;1.00
1602;DHT22;794;48.592;9.634;2022-08-21T03:22:44;11.30;1.00
1602;DHT22;794;48.592;9.634;2022-08-21T03:30:16;11.30;1.00
1602;DHT22;794;48.592;9.634;2022-08-21T03:35:13;11.00;1.00
1602;DHT22;794;48.592;9.634;2022-08-21T03:37:41;11.40;1.00
1602;DHT22;794;48.592;9.634;2022-08-21T03:40:09;11.10;1.00
1602;DHT22;794;48.592;9.634;2022-08-21T03:42:37;11.20;1.00
1602;DHT22;794;48.592;9.634;2022-08-21T03:45:05;11.40;1.00
1602;DHT22;794;48.592;9.634;2022-08-21T03:50:00;11.20;1.00
1602;DHT22;794;48.592;9.634;2022-08-21T03:52:29;11.00;1.00
1602;DHT22;794;48.592;9.634;2022-08-21T03:54:56;11.10;1.00
1602;DHT22;794;48.592;9.634;2022-08-21T03:57:23;11.30;1.00
1602;DHT22;794;48.592;9.634;2022-08-21T03:59:50;11.00;1.00
1602;DHT22;794;48.592;9.634;2022-08-21T04:02:19;11.20;1.00
1602;DHT22;794;48.592;9.634;2022-08-21T04:04:56;11.20;1.00
1602;DHT22;794;48.592;9.634;2022-08-21T04:07:25;11.30;1.00
1602;DHT22;794;48.592;9.634;2022-08-21T04:09:55;10.90;1.00
1602;DHT22;794;48.592;9.634;2022-08-21T04:12:22;12.50;1.00
1602;DHT22;794;48.592;9.634;2022-08-21T04:14:52;10.90;1.00
1602;DHT22;794;48.592;9.634;2022-08-21T04:17:19;10.30;1.00
1602;DHT22;794;48.592;9.634;2022-08-21T04:19:46;11.00;1.00
1602;DHT22;794;48.592;9.634;2022-08-21T04:22:15;10.90;1.00
1602;DHT22;794;48.592;9.634;2022-08-21T04:24:42;10.90;1.00
1602;DHT22;794;48.592;9.634;2022-08-21T04:27:10;8.60;1.00
1602;DHT22;794;48.592;9.634;2022-08-21T04:32:05;11.00;1.00
1602;DHT22;794;48.592;9.634;2022-08-21T04:34:32;10.70;1.00
1602;DHT22;794;48.592;9.634;2022-08-21T04:36:59;10.90;1.00
1602;DHT22;794;48.592;9.634;2022-08-21T04:39:26;11.00;1.00
1602;DHT22;794;48.592;9.634;2022-08-21T04:41:53;10.20;1.00
1602;DHT22;794;48.592;9.634;2022-08-21T04:44:22;11.20;1.00
1602;DHT22;794;48.592;9.634;2022-08-21T04:46:49;10.90;1.00
1602;DHT22;794;48.592;9.634;2022-08-21T04:49:16;11.40;1.00
1602;DHT22;794;48.592;9.634;2022-08-21T04:54:14;11.10;1.00
1602;DHT22;794;48.592;9.634;2022-08-21T04:56:46;11.00;1.00
1602;DHT22;794;48.592;9.634;2022-08-21T04:59:18;11.10;1.00
1602;DHT22;794;48.592;9.634;2022-08-21T05:01:54;11.70;1.00
1602;DHT22;794;48.592;9.634;2022-08-21T05:04:30;11.20;1.00
1602;DHT22;794;48.592;9.634;2022-08-21T05:07:06;11.60;1.00
1602;DHT22;794;48.592;9.634;2022-08-21T05:09:34;11.30;1.00
1602;DHT22;794;48.592;9.634;2022-08-21T05:12:04;11.50;1.00
1602;DHT22;794;48.592;9.634;2022-08-21T05:14:31;10.80;1.00
1602;DHT22;794;48.592;9.634;2022-08-21T05:17:00;11.50;1.00
1602;DHT22;794;48.592;9.634;2022-08-21T05:19:27;11.50;1.00
1602;DHT22;794;48.592;9.634;2022-08-21T05:21:55;11.70;1.00
1602;DHT22;794;48.592;9.634;2022-08-21T05:24:28;11.70;1.00
1602;DHT22;794;48.592;9.634;2022-08-21T05:26:56;12.20;1.00
1602;DHT22;794;48.592;9.634;2022-08-21T05:29:25;11.90;1.00
1602;DHT22;794;48.592;9.634;2022-08-21T05:31:52;12.00;1.00
1602;DHT22;794;48.592;9.634;2022-08-21T05:34:28;12.10;1.00
1602;DHT22;794;48.592;9.634;2022-08-21T05:36:56;12.30;1.00
1602;DHT22;794;48.592;9.634;2022-08-21T05:39:30;12.70;1.00
1602;DHT22;794;48.592;9.634;2022-08-21T05:41:58;12.10;1.00
1602;DHT22;794;48.592;9.634;2022-08-21T05:47:03;12.60;1.00
1602;DHT22;794;48.592;9.634;2022-08-21T05:49:32;12.70;1.00
1602;DHT22;794;48.592;9.634;2022-08-21T05:51:59;12.80;1.00
1602;DHT22;794;48.592;9.634;2022-08-21T05:54:31;13.30;1.00
1602;DHT22;794;48.592;9.634;2022-08-21T05:56:58;13.10;1.00
1602;DHT22;794;48.592;9.634;2022-08-21T05:59:25;13.20;1.00
1602;DHT22;794;48.592;9.634;2022-08-21T06:01:53;13.20;1.00
1602;DHT22;794;48.592;9.634;2022-08-21T06:04:20;13.30;1.00
1602;DHT22;794;48.592;9.634;2022-08-21T06:06:54;13.40;1.00
1602;DHT22;794;48.592;9.634;2022-08-21T06:09:21;13.60;1.00
1602;DHT22;794;48.592;9.634;2022-08-21T06:11:48;13.50;1.00
1602;DHT22;794;48.592;9.634;2022-08-21T06:14:15;13.50;1.00
1602;DHT22;794;48.592;9.634;2022-08-21T06:16:42;13.50;1.00
1602;DHT22;794;48.592;9.634;2022-08-21T06:21:37;13.70;1.00
1602;DHT22;794;48.592;9.634;2022-08-21T06:24:06;13.90;1.00
1602;DHT22;794;48.592;9.634;2022-08-21T06:26:34;12.00;1.00
1602;DHT22;794;48.592;9.634;2022-08-21T06:29:02;14.10;1.00
1602;DHT22;794;48.592;9.634;2022-08-21T06:31:29;14.10;1.00
1602;DHT22;794;48.592;9.634;2022-08-21T06:36:24;14.40;1.00
1602;DHT22;794;48.592;9.634;2022-08-21T06:38:51;14.70;1.00
1602;DHT22;794;48.592;9.634;2022-08-21T06:41:20;15.10;1.00
1602;DHT22;794;48.592;9.634;2022-08-21T06:43:47;15.10;1.00
1602;DHT22;794;48.592;9.634;2022-08-21T06:46:14;15.30;1.00
1602;DHT22;794;48.592;9.634;2022-08-21T06:48:41;15.50;1.00
1602;DHT22;794;48.592;9.634;2022-08-21T06:51:08;15.70;1.00
1602;DHT22;794;48.592;9.634;2022-08-21T06:53:35;15.80;1.00
1602;DHT22;794;48.592;9.634;2022-08-21T06:56:03;16.60;1.00
1602;DHT22;794;48.592;9.634;2022-08-21T06:58:31;19.50;1.00
1602;DHT22;794;48.592;9.634;2022-08-21T07:00:59;22.90;1.00
1602;DHT22;794;48.592;9.634;2022-08-21T07:03:29;25.90;1.00
1602;DHT22;794;48.592;9.634;2022-08-21T07:05:56;29.20;1.00
1602;DHT22;794;48.592;9.634;2022-08-21T07:08:25;32.70;1.00
1602;DHT22;794;48.592;9.634;2022-08-21T07:10:53;33.70;1.00
1602;DHT22;794;48.592;9.634;2022-08-21T07:15:50;34.60;1.00
1602;DHT22;794;48.592;9.634;2022-08-21T07:18:18;36.40;1.00
1602;DHT22;794;48.592;9.634;2022-08-21T07:20:45;36.40;1.00
1602;DHT22;794;48.592;9.634;2022-08-21T07:23:21;36.30;1.00
1602;DHT22;794;48.592;9.634;2022-08-21T07:25:49;36.90;1.00
1602;DHT22;794;48.592;9.634;2022-08-21T07:28:16;37.30;1.00
1602;DHT22;794;48.592;9.634;2022-08-21T07:30:44;38.20;1.00
1602;DHT22;794;48.592;9.634;2022-08-21T07:33:12;38.60;1.00
1602;DHT22;794;48.592;9.634;2022-08-21T07:35:39;37.30;1.00
1602;DHT22;794;48.592;9.634;2022-08-21T07:38:06;35.60;1.00
1602;DHT22;794;48.592;9.634;2022-08-21T07:40:34;37.30;1.00
1602;DHT22;794;48.592;9.634;2022-08-21T07:43:01;37.70;1.00
1602;DHT22;794;48.592;9.634;2022-08-21T07:45:28;37.90;1.00
1602;DHT22;794;48.592;9.634;2022-08-21T07:47:55;36.40;1.00
1602;DHT22;794;48.592;9.634;2022-08-21T07:50:24;35.30;1.00
1602;DHT22;794;48.592;9.634;2022-08-21T07:52:51;35.70;1.00
1602;DHT22;794;48.592;9.634;2022-08-21T07:55:19;35.20;1.00
1602;DHT22;794;48.592;9.634;2022-08-21T07:57:47;32.90;1.00
1602;DHT22;794;48.592;9.634;2022-08-21T08:00:18;33.30;1.00
1602;DHT22;794;48.592;9.634;2022-08-21T08:02:48;31.50;1.00
1602;DHT22;794;48.592;9.634;2022-08-21T08:05:17;31.50;1.00
1602;DHT22;794;48.592;9.634;2022-08-21T08:07:46;33.20;1.00
1602;DHT22;794;48.592;9.634;2022-08-21T08:10:14;33.40;1.00
1602;DHT22;794;48.592;9.634;2022-08-21T08:12:42;31.40;1.00
1602;DHT22;794;48.592;9.634;2022-08-21T08:15:12;34.00;1.00
1602;DHT22;794;48.592;9.634;2022-08-21T08:17:39;34.00;1.00
1602;DHT22;794;48.592;9.634;2022-08-21T08:20:09;34.50;1.00
1602;DHT22;794;48.592;9.634;2022-08-21T08:22:37;34.40;1.00
1602;DHT22;794;48.592;9.634;2022-08-21T08:25:13;34.70;1.00
1602;DHT22;794;48.592;9.634;2022-08-21T08:27:40;34.60;1.00
1602;DHT22;794;48.592;9.634;2022-08-21T08:30:10;34.40;1.00
1602;DHT22;794;48.592;9.634;2022-08-21T08:35:06;31.90;1.00
1602;DHT22;794;48.592;9.634;2022-08-21T08:37:34;33.20;1.00
1602;DHT22;794;48.592;9.634;2022-08-21T08:40:04;33.30;1.00
1602;DHT22;794;48.592;9.634;2022-08-21T08:42:35;33.80;1.00
1602;DHT22;794;48.592;9.634;2022-08-21T08:45:06;34.10;1.00
1602;DHT22;794;48.592;9.634;2022-08-21T08:47:36;34.20;1.00
1602;DHT22;794;48.592;9.634;2022-08-21T08:50:07;34.00;1.00
1602;DHT22;794;48.592;9.634;2022-08-21T08:52:41;33.30;1.00
1602;DHT22;794;48.592;9.634;2022-08-21T08:55:13;30.50;1.00
1602;DHT22;794;48.592;9.634;2022-08-21T08:57:46;33.00;1.00
1602;DHT22;794;48.592;9.634;2022-08-21T09:00:16;31.20;1.00
1602;DHT22;794;48.592;9.634;2022-08-21T09:02:45;32.50;1.00
1602;DHT22;794;48.592;9.634;2022-08-21T09:05:21;32.80;1.00
1602;DHT22;794;48.592;9.634;2022-08-21T09:08:03;33.80;1.00
1602;DHT22;794;48.592;9.634;2022-08-21T09:10:47;35.10;1.00
1602;DHT22;794;48.592;9.634;2022-08-21T09:13:30;33.50;1.00
1602;DHT22;794;48.592;9.634;2022-08-21T09:16:08;33.10;1.00
1602;DHT22;794;48.592;9.634;2022-08-21T09:18:45;32.80;1.00
1602;DHT22;794;48.592;9.634;2022-08-21T09:21:20;32.70;1.00
1602;DHT22;794;48.592;9.634;2022-08-21T09:23:56;32.10;1.00
1602;DHT22;794;48.592;9.634;2022-08-21T09:26:27;33.20;1.00
1602;DHT22;794;48.592;9.634;2022-08-21T09:28:59;34.40;1.00
1602;DHT22;794;48.592;9.634;2022-08-21T09:31:29;30.70;1.00
1602;DHT22;794;48.592;9.634;2022-08-21T09:33:59;31.80;1.00
1602;DHT22;794;48.592;9.634;2022-08-21T09:36:36;31.00;1.00
1602;DHT22;794;48.592;9.634;2022-08-21T09:39:06;30.60;1.00
1602;DHT22;794;48.592;9.634;2022-08-21T09:41:35;30.30;1.00
1602;DHT22;794;48.592;9.634;2022-08-21T09:44:07;29.90;1.00
1602;DHT22;794;48.592;9.634;2022-08-21T09:46:35;29.70;1.00
1602;DHT22;794;48.592;9.634;2022-08-21T09:49:03;29.90;1.00
1602;DHT22;794;48.592;9.634;2022-08-21T09:51:32;30.10;1.00
1602;DHT22;794;48.592;9.634;2022-08-21T09:54:15;30.70;1.00
1602;DHT22;794;48.592;9.634;2022-08-21T09:56:53;31.50;1.00
1602;DHT22;794;48.592;9.634;2022-08-21T09:59:41;33.20;1.00
1602;DHT22;794;48.592;9.634;2022-08-21T10:02:33;33.10;1.00
1602;DHT22;794;48.592;9.634;2022-08-21T10:05:08;32.80;1.00
1602;DHT22;794;48.592;9.634;2022-08-21T10:07:38;32.60;1.00
1602;DHT22;794;48.592;9.634;2022-08-21T10:10:08;29.30;1.00
1602;DHT22;794;48.592;9.634;2022-08-21T10:12:45;31.20;1.00
1602;DHT22;794;48.592;9.634;2022-08-21T10:15:21;30.30;1.00
1602;DHT22;794;48.592;9.634;2022-08-21T10:17:57;30.60;1.00
1602;DHT22;794;48.592;9.634;2022-08-21T10:20:39;29.60;1.00
1602;DHT22;794;48.592;9.634;2022-08-21T10:23:19;29.70;1.00
1602;DHT22;794;48.592;9.634;2022-08-21T10:25:55;28.80;1.00
1602;DHT22;794;48.592;9.634;2022-08-21T10:28:29;29.00;1.00
1602;DHT22;794;48.592;9.634;2022-08-21T10:31:09;28.70;1.00
1602;DHT22;794;48.592;9.634;2022-08-21T10:33:48;28.50;1.00
1602;DHT22;794;48.592;9.634;2022-08-21T10:36:23;27.50;1.00
1602;DHT22;794;48.592;9.634;2022-08-21T10:39:01;27.60;1.00
1602;DHT22;794;48.592;9.634;2022-08-21T10:41:42;24.90;1.00
1602;DHT22;794;48.592;9.634;2022-08-21T10:44:18;27.10;1.00
1602;DHT22;794;48.592;9.634;2022-08-21T10:46:57;26.90;1.00
1602;DHT22;794;48.592;9.634;2022-08-21T10:49:39;26.80;1.00
1602;DHT22;794;48.592;9.634;2022-08-21T10:52:34;26.10;1.00
1602;DHT22;794;48.592;9.634;2022-08-21T10:55:08;25.10;1.00
1602;DHT22;794;48.592;9.634;2022-08-21T10:57:41;24.90;1.00
1602;DHT22;794;48.592;9.634;2022-08-21T11:00:14;24.80;1.00
1602;DHT22;794;48.592;9.634;2022-08-21T11:02:48;24.80;1.00
1602;DHT22;794;48.592;9.634;2022-08-21T11:05:29;24.60;1.00
1602;DHT22;794;48.592;9.634;2022-08-21T11:08:08;25.20;1.00
1602;DHT22;794;48.592;9.634;2022-08-21T11:10:40;25.70;1.00
1602;DHT22;794;48.592;9.634;2022-08-21T11:13:16;26.10;1.00
1602;DHT22;794;48.592;9.634;2022-08-21T11:15:50;25.90;1.00
1602;DHT22;794;48.592;9.634;2022-08-21T11:18:27;25.70;1.00
1602;DHT22;794;48.592;9.634;2022-08-21T11:21:02;25.70;1.00
1602;DHT22;794;48.592;9.634;2022-08-21T11:23:38;25.00;1.00
1602;DHT22;794;48.592;9.634;2022-08-21T11:26:11;24.90;1.00
1602;DHT22;794;48.592;9.634;2022-08-21T11:28:46;24.80;1.00
1602;DHT22;794;48.592;9.634;2022-08-21T11:31:27;24.40;1.00
1602;DHT22;794;48.592;9.634;2022-08-21T11:34:09;24.70;1.00
1602;DHT22;794;48.592;9.634;2022-08-21T11:36:47;25.20;1.00
1602;DHT22;794;48.592;9.634;2022-08-21T11:39:22;24.00;1.00
1602;DHT22;794;48.592;9.634;2022-08-21T11:41:57;25.60;1.00
1602;DHT22;794;48.592;9.634;2022-08-21T11:44:36;23.10;1.00
1602;DHT22;794;48.592;9.634;2022-08-21T11:47:11;25.00;1.00
1602;DHT22;794;48.592;9.634;2022-08-21T11:49:49;25.00;1.00
1602;DHT22;794;48.592;9.634;2022-08-21T11:52:23;24.40;1.00
1602;DHT22;794;48.592;9.634;2022-08-21T11:54:56;24.00;1.00
1602;DHT22;794;48.592;9.634;2022-08-21T11:57:27;24.10;1.00
1602;DHT22;794;48.592;9.634;2022-08-21T12:00:00;24.00;1.00
1602;DHT22;794;48.592;9.634;2022-08-21T12:02:33;23.90;1.00
1602;DHT22;794;48.592;9.634;2022-08-21T12:05:06;23.80;1.00
1602;DHT22;794;48.592;9.634;2022-08-21T12:07:37;23.10;1.00
1602;DHT22;794;48.592;9.634;2022-08-21T12:10:08;23.90;1.00
1602;DHT22;794;48.592;9.634;2022-08-21T12:12:37;24.00;1.00
1602;DHT22;794;48.592;9.634;2022-08-21T12:15:24;22.80;1.00
1602;DHT22;794;48.592;9.634;2022-08-21T12:17:55;24.30;1.00
1602;DHT22;794;48.592;9.634;2022-08-21T12:20:38;24.60;1.00
1602;DHT22;794;48.592;9.634;2022-08-21T12:23:17;24.70;1.00
1602;DHT22;794;48.592;9.634;2022-08-21T12:25:48;24.50;1.00
1602;DHT22;794;48.592;9.634;2022-08-21T12:28:25;24.70;1.00
1602;DHT22;794;48.592;9.634;2022-08-21T12:30:53;24.00;1.00
1602;DHT22;794;48.592;9.634;2022-08-21T12:33:24;24.30;1.00
1602;DHT22;794;48.592;9.634;2022-08-21T12:36:04;23.40;1.00
1602;DHT22;794;48.592;9.634;2022-08-21T12:38:42;23.50;1.00
1602;DHT22;794;48.592;9.634;2022-08-21T12:41:16;23.80;1.00
1602;DHT22;794;48.592;9.634;2022-08-21T12:43:48;23.60;1.00
1602;DHT22;794;48.592;9.634;2022-08-21T12:46:19;23.60;1.00
1602;DHT22;794;48.592;9.634;2022-08-21T12:48:52;23.70;1.00
1602;DHT22;794;48.592;9.634;2022-08-21T12:51:27;23.80;1.00
1602;DHT22;794;48.592;9.634;2022-08-21T12:53:59;23.60;1.00
1602;DHT22;794;48.592;9.634;2022-08-21T12:56:28;23.70;1.00
1602;DHT22;794;48.592;9.634;2022-08-21T12:59:00;24.00;1.00
1602;DHT22;794;48.592;9.634;2022-08-21T13:01:31;24.10;1.00
1602;DHT22;794;48.592;9.634;2022-08-21T13:04:03;24.20;1.00
1602;DHT22;794;48.592;9.634;2022-08-21T13:06:38;24.20;1.00
1602;DHT22;794;48.592;9.634;2022-08-21T13:09:08;23.90;1.00
1602;DHT22;794;48.592;9.634;2022-08-21T13:11:37;24.10;1.00
1602;DHT22;794;48.592;9.634;2022-08-21T13:16:32;23.50;1.00
1602;DHT22;794;48.592;9.634;2022-08-21T13:19:01;23.90;1.00
1602;DHT22;794;48.592;9.634;2022-08-21T13:21:30;23.50;1.00
1602;DHT22;794;48.592;9.634;2022-08-21T13:24:16;23.60;1.00
1602;DHT22;794;48.592;9.634;2022-08-21T13:26:43;23.80;1.00
1602;DHT22;794;48.592;9.634;2022-08-21T13:29:13;24.10;1.00
1602;DHT22;794;48.592;9.634;2022-08-21T13:31:46;24.10;1.00
1602;DHT22;794;48.592;9.634;2022-08-21T13:34:14;23.20;1.00
1602;DHT22;794;48.592;9.634;2022-08-21T13:36:44;24.30;1.00
1602;DHT22;794;48.592;9.634;2022-08-21T13:39:17;24.20;1.00
1602;DHT22;794;48.592;9.634;2022-08-21T13:41:49;24.10;1.00
1602;DHT22;794;48.592;9.634;2022-08-21T13:44:20;23.80;1.00
1602;DHT22;794;48.592;9.634;2022-08-21T13:46:52;23.70;1.00
1602;DHT22;794;48.592;9.634;2022-08-21T13:49:33;24.00;1.00
1602;DHT22;794;48.592;9.634;2022-08-21T13:52:01;23.50;1.00
1602;DHT22;794;48.592;9.634;2022-08-21T13:54:35;23.50;1.00
1602;DHT22;794;48.592;9.634;2022-08-21T13:57:03;21.30;1.00
1602;DHT22;794;48.592;9.634;2022-08-21T13:59:32;23.30;1.00
1602;DHT22;794;48.592;9.634;2022-08-21T14:02:01;23.40;1.00
1602;DHT22;794;48.592;9.634;2022-08-21T14:04:35;23.60;1.00
1602;DHT22;794;48.592;9.634;2022-08-21T14:07:03;23.60;1.00
1602;DHT22;794;48.592;9.634;2022-08-21T14:09:43;23.60;1.00
1602;DHT22;794;48.592;9.634;2022-08-21T14:12:14;23.30;1.00
1602;DHT22;794;48.592;9.634;2022-08-21T14:14:42;23.40;1.00
1602;DHT22;794;48.592;9.634;2022-08-21T14:17:13;23.50;1.00
1602;DHT22;794;48.592;9.634;2022-08-21T14:19:43;23.50;1.00
1602;DHT22;794;48.592;9.634;2022-08-21T14:22:29;23.50;1.00
1602;DHT22;794;48.592;9.634;2022-08-21T14:25:05;23.40;1.00
1602;DHT22;794;48.592;9.634;2022-08-21T14:27:33;23.40;1.00
1602;DHT22;794;48.592;9.634;2022-08-21T14:30:10;23.50;1.00
1602;DHT22;794;48.592;9.634;2022-08-21T14:32:40;23.50;1.00
1602;DHT22;794;48.592;9.634;2022-08-21T14:35:08;23.80;1.00
1602;DHT22;794;48.592;9.634;2022-08-21T14:37:35;23.60;1.00
1602;DHT22;794;48.592;9.634;2022-08-21T14:40:05;23.50;1.00
1602;DHT22;794;48.592;9.634;2022-08-21T14:42:32;23.40;1.00
1602;DHT22;794;48.592;9.634;2022-08-21T14:45:02;23.50;1.00
1602;DHT22;794;48.592;9.634;2022-08-21T14:47:31;23.30;1.00
1602;DHT22;794;48.592;9.634;2022-08-21T14:49:58;23.40;1.00
1602;DHT22;794;48.592;9.634;2022-08-21T14:52:25;23.30;1.00
1602;DHT22;794;48.592;9.634;2022-08-21T14:54:52;23.50;1.00
1602;DHT22;794;48.592;9.634;2022-08-21T14:57:21;23.30;1.00
1602;DHT22;794;48.592;9.634;2022-08-21T14:59:49;23.40;1.00
1602;DHT22;794;48.592;9.634;2022-08-21T15:02:16;23.30;1.00
1602;DHT22;794;48.592;9.634;2022-08-21T15:04:43;23.40;1.00
1602;DHT22;794;48.592;9.634;2022-08-21T15:07:10;23.30;1.00
1602;DHT22;794;48.592;9.634;2022-08-21T15:09:38;23.80;1.00
1602;DHT22;794;48.592;9.634;2022-08-21T15:12:05;23.30;1.00
1602;DHT22;794;48.592;9.634;2022-08-21T15:14:39;23.20;1.00
1602;DHT22;794;48.592;9.634;2022-08-21T15:17:07;23.00;1.00
1602;DHT22;794;48.592;9.634;2022-08-21T15:19:36;23.10;1.00
1602;DHT22;794;48.592;9.634;2022-08-21T15:22:04;23.20;1.00
1602;DHT22;794;48.592;9.634;2022-08-21T15:24:31;23.20;1.00
1602;DHT22;794;48.592;9.634;2022-08-21T15:27:00;23.20;1.00
1602;DHT22;794;48.592;9.634;2022-08-21T15:29:28;23.20;1.00
1602;DHT22;794;48.592;9.634;2022-08-21T15:31:59;23.20;1.00
1602;DHT22;794;48.592;9.634;2022-08-21T15:34:28;23.20;1.00
1602;DHT22;794;48.592;9.634;2022-08-21T15:36:56;23.20;1.00
1602;DHT22;794;48.592;9.634;2022-08-21T15:39:24;23.40;1.00
1602;DHT22;794;48.592;9.634;2022-08-21T15:41:52;23.20;1.00
1602;DHT22;794;48.592;9.634;2022-08-21T15:44:20;23.20;1.00
1602;DHT22;794;48.592;9.634;2022-08-21T15:46:47;23.30;1.00
1602;DHT22;794;48.592;9.634;2022-08-21T15:49:15;23.40;1.00
1602;DHT22;794;48.592;9.634;2022-08-21T15:51:42;23.40;1.00
1602;DHT22;794;48.592;9.634;2022-08-21T15:54:10;23.30;1.00
1602;DHT22;794;48.592;9.634;2022-08-21T15:56:39;23.30;1.00
1602;DHT22;794;48.592;9.634;2022-08-21T15:59:12;23.20;1.00
1602;DHT22;794;48.592;9.634;2022-08-21T16:01:40;23.30;1.00
1602;DHT22;794;48.592;9.634;2022-08-21T16:04:08;23.20;1.00
1602;DHT22;794;48.592;9.634;2022-08-21T16:06:37;23.30;1.00
1602;DHT22;794;48.592;9.634;2022-08-21T16:09:04;23.30;1.00
1602;DHT22;794;48.592;9.634;2022-08-21T16:11:32;23.10;1.00
1602;DHT22;794;48.592;9.634;2022-08-21T16:13:59;23.10;1.00
1602;DHT22;794;48.592;9.634;2022-08-21T16:16:35;23.10;1.00
1602;DHT22;794;48.592;9.634;2022-08-21T16:19:03;23.10;1.00
1602;DHT22;794;48.592;9.634;2022-08-21T16:21:31;23.10;1.00
1602;DHT22;794;48.592;9.634;2022-08-21T16:24:00;23.30;1.00
1602;DHT22;794;48.592;9.634;2022-08-21T16:26:28;23.10;1.00
1602;DHT22;794;48.592;9.634;2022-08-21T16:28:57;23.10;1.00
1602;DHT22;794;48.592;9.634;2022-08-21T16:31:25;23.10;1.00
1602;DHT22;794;48.592;9.634;2022-08-21T16:33:54;23.20;1.00
1602;DHT22;794;48.592;9.634;2022-08-21T16:39:51;23.10;1.00
1602;DHT22;794;48.592;9.634;2022-08-21T16:42:24;23.00;1.00
1602;DHT22;794;48.592;9.634;2022-08-21T16:44:52;22.80;1.00
1602;DHT22;794;48.592;9.634;2022-08-21T16:47:19;22.70;1.00
1602;DHT22;794;48.592;9.634;2022-08-21T16:49:46;22.70;1.00
1602;DHT22;794;48.592;9.634;2022-08-21T16:52:15;22.50;1.00
1602;DHT22;794;48.592;9.634;2022-08-21T16:54:42;22.40;1.00
1602;DHT22;794;48.592;9.634;2022-08-21T16:57:10;22.50;1.00
1602;DHT22;794;48.592;9.634;2022-08-21T16:59:38;23.00;1.00
1602;DHT22;794;48.592;9.634;2022-08-21T17:02:08;21.60;1.00
1602;DHT22;794;48.592;9.634;2022-08-21T17:04:40;23.30;1.00
1602;DHT22;794;48.592;9.634;2022-08-21T17:07:07;23.10;1.00
1602;DHT22;794;48.592;9.634;2022-08-21T17:09:33;22.70;1.00
1602;DHT22;794;48.592;9.634;2022-08-21T17:12:00;22.40;1.00
1602;DHT22;794;48.592;9.634;2022-08-21T17:14:29;22.10;1.00
1602;DHT22;794;48.592;9.634;2022-08-21T17:16:56;21.90;1.00
1602;DHT22;794;48.592;9.634;2022-08-21T17:19:23;21.60;1.00
1602;DHT22;794;48.592;9.634;2022-08-21T17:21:50;21.30;1.00
1602;DHT22;794;48.592;9.634;2022-08-21T17:24:17;21.10;1.00
1602;DHT22;794;48.592;9.634;2022-08-21T17:26:44;20.80;1.00
1602;DHT22;794;48.592;9.634;2022-08-21T17:29:12;20.70;1.00
1602;DHT22;794;48.592;9.634;2022-08-21T17:31:42;20.60;1.00
1602;DHT22;794;48.592;9.634;2022-08-21T17:34:10;20.40;1.00
1602;DHT22;794;48.592;9.634;2022-08-21T17:36:37;20.20;1.00
1602;DHT22;794;48.592;9.634;2022-08-21T17:39:05;20.10;1.00
1602;DHT22;794;48.592;9.634;2022-08-21T17:41:32;20.00;1.00
1602;DHT22;794;48.592;9.634;2022-08-21T17:44:03;19.90;1.00
1602;DHT22;794;48.592;9.634;2022-08-21T17:46:32;19.70;1.00
1602;DHT22;794;48.592;9.634;2022-08-21T17:49:00;19.50;1.00
1602;DHT22;794;48.592;9.634;2022-08-21T17:51:27;19.40;1.00
1602;DHT22;794;48.592;9.634;2022-08-21T17:53:53;19.40;1.00